sensor_id;sensor_type;location;lat;lon;timestamp;P1;P2;P0
45990;PMS5003;31721;41.740;-88.000;2023-02-28T00:01:32;2;2;
45990;PMS5003;31721;41.740;-88.000;2023-02-28T00:04:00;4;4;
45990;PMS5003;31721;41.740;-88.000;2023-02-28T00:06:28;3;2;
45990;PMS5003;31721;41.740;-88.000;2023-02-28T00:08:56;3;3;
45990;PMS5003;31721;41.740;-88.000;2023-02-28T00:11:24;3;3;
45990;PMS5003;31721;41.740;-88.000;2023-02-28T00:13:52;4;4;
45990;PMS5003;31721;41.740;-88.000;2023-02-28T00:16:21;3;3;
45990;PMS5003;31721;41.740;-88.000;2023-02-28T00:18:50;2;2;
45990;PMS5003;31721;41.740;-88.000;2023-02-28T00:21:19;2;2;
45990;PMS5003;31721;41.740;-88.000;2023-02-28T00:23:47;2;2;
45990;PMS5003;31721;41.740;-88.000;2023-02-28T00:26:15;7;7;
45990;PMS5003;31721;41.740;-88.000;2023-02-28T00:28:44;4;3;
45990;PMS5003;31721;41.740;-88.000;2023-02-28T00:31:12;5;5;
45990;PMS5003;31721;41.740;-88.000;2023-02-28T00:33:40;4;3;
45990;PMS5003;31721;41.740;-88.000;2023-02-28T00:36:10;2;2;
45990;PMS5003;31721;41.740;-88.000;2023-02-28T00:38:39;3;3;
45990;PMS5003;31721;41.740;-88.000;2023-02-28T00:41:08;5;3;
45990;PMS5003;31721;41.740;-88.000;2023-02-28T00:43:38;3;2;
45990;PMS5003;31721;41.740;-88.000;2023-02-28T00:46:06;3;3;
45990;PMS5003;31721;41.740;-88.000;2023-02-28T00:48:35;4;4;
45990;PMS5003;31721;41.740;-88.000;2023-02-28T00:51:04;5;4;
45990;PMS5003;31721;41.740;-88.000;2023-02-28T00:53:32;3;3;
45990;PMS5003;31721;41.740;-88.000;2023-02-28T00:56:00;5;4;
45990;PMS5003;31721;41.740;-88.000;2023-02-28T00:58:29;3;3;
45990;PMS5003;31721;41.740;-88.000;2023-02-28T01:00:58;4;2;
45990;PMS5003;31721;41.740;-88.000;2023-02-28T01:03:26;2;2;
45990;PMS5003;31721;41.740;-88.000;2023-02-28T01:05:55;2;2;
45990;PMS5003;31721;41.740;-88.000;2023-02-28T01:08:23;3;3;
45990;PMS5003;31721;41.740;-88.000;2023-02-28T01:10:51;2;2;
45990;PMS5003;31721;41.740;-88.000;2023-02-28T01:13:19;2;2;
45990;PMS5003;31721;41.740;-88.000;2023-02-28T01:15:49;3;3;
45990;PMS5003;31721;41.740;-88.000;2023-02-28T01:18:19;2;2;
45990;PMS5003;31721;41.740;-88.000;2023-02-28T01:20:48;2;2;
45990;PMS5003;31721;41.740;-88.000;2023-02-28T01:23:16;4;3;
45990;PMS5003;31721;41.740;-88.000;2023-02-28T01:25:44;2;2;
45990;PMS5003;31721;41.740;-88.000;2023-02-28T01:28:11;2;2;
45990;PMS5003;31721;41.740;-88.000;2023-02-28T01:30:39;3;3;
45990;PMS5003;31721;41.740;-88.000;2023-02-28T01:33:08;4;4;
45990;PMS5003;31721;41.740;-88.000;2023-02-28T01:35:35;2;2;
45990;PMS5003;31721;41.740;-88.000;2023-02-28T01:38:03;3;3;
45990;PMS5003;31721;41.740;-88.000;2023-02-28T01:40:31;4;3;
45990;PMS5003;31721;41.740;-88.000;2023-02-28T01:42:59;4;4;
45990;PMS5003;31721;41.740;-88.000;2023-02-28T01:45:28;3;3;
45990;PMS5003;31721;41.740;-88.000;2023-02-28T01:47:58;6;6;
45990;PMS5003;31721;41.740;-88.000;2023-02-28T01:50:31;2;2;
45990;PMS5003;31721;41.740;-88.000;2023-02-28T01:53:02;7;5;
45990;PMS5003;31721;41.740;-88.000;2023-02-28T01:55:33;3;2;
45990;PMS5003;31721;41.740;-88.000;2023-02-28T01:58:03;4;2;
45990;PMS5003;31721;41.740;-88.000;2023-02-28T02:00:33;2;2;
45990;PMS5003;31721;41.740;-88.000;2023-02-28T02:03:05;6;3;
45990;PMS5003;31721;41.740;-88.000;2023-02-28T02:05:38;4;2;
45990;PMS5003;31721;41.740;-88.000;2023-02-28T02:08:08;2;2;
45990;PMS5003;31721;41.740;-88.000;2023-02-28T02:10:40;3;3;
45990;PMS5003;31721;41.740;-88.000;2023-02-28T02:13:21;2;2;
45990;PMS5003;31721;41.740;-88.000;2023-02-28T02:16:04;3;3;
45990;PMS5003;31721;41.740;-88.000;2023-02-28T02:18:43;3;3;
45990;PMS5003;31721;41.740;-88.000;2023-02-28T02:21:26;3;3;
45990;PMS5003;31721;41.740;-88.000;2023-02-28T02:24:31;1;1;
45990;PMS5003;31721;41.740;-88.000;2023-02-28T02:27:18;3;2;
45990;PMS5003;31721;41.740;-88.000;2023-02-28T02:29:58;1;1;
45990;PMS5003;31721;41.740;-88.000;2023-02-28T02:32:45;2;2;
45990;PMS5003;31721;41.740;-88.000;2023-02-28T02:35:30;3;3;
45990;PMS5003;31721;41.740;-88.000;2023-02-28T02:38:05;3;3;
45990;PMS5003;31721;41.740;-88.000;2023-02-28T02:40:43;3;3;
45990;PMS5003;31721;41.740;-88.000;2023-02-28T02:43:19;2;2;
45990;PMS5003;31721;41.740;-88.000;2023-02-28T02:45:53;1;1;
45990;PMS5003;31721;41.740;-88.000;2023-02-28T02:48:26;3;1;
45990;PMS5003;31721;41.740;-88.000;2023-02-28T02:50:58;3;2;
45990;PMS5003;31721;41.740;-88.000;2023-02-28T02:53:29;2;2;
45990;PMS5003;31721;41.740;-88.000;2023-02-28T02:56:01;2;2;
45990;PMS5003;31721;41.740;-88.000;2023-02-28T02:58:33;1;1;
45990;PMS5003;31721;41.740;-88.000;2023-02-28T03:01:05;1;1;
45990;PMS5003;31721;41.740;-88.000;2023-02-28T03:03:34;1;1;
45990;PMS5003;31721;41.740;-88.000;2023-02-28T03:06:02;2;2;
45990;PMS5003;31721;41.740;-88.000;2023-02-28T03:08:34;1;1;
45990;PMS5003;31721;41.740;-88.000;2023-02-28T03:11:04;1;1;
45990;PMS5003;31721;41.740;-88.000;2023-02-28T03:13:39;4;2;
45990;PMS5003;31721;41.740;-88.000;2023-02-28T03:16:34;1;1;
45990;PMS5003;31721;41.740;-88.000;2023-02-28T03:19:14;1;1;
45990;PMS5003;31721;41.740;-88.000;2023-02-28T03:21:55;1;1;
45990;PMS5003;31721;41.740;-88.000;2023-02-28T03:24:33;1;1;
45990;PMS5003;31721;41.740;-88.000;2023-02-28T03:27:09;1;1;
45990;PMS5003;31721;41.740;-88.000;2023-02-28T03:29:45;1;1;
45990;PMS5003;31721;41.740;-88.000;2023-02-28T03:32:18;1;1;
45990;PMS5003;31721;41.740;-88.000;2023-02-28T03:34:54;1;1;
45990;PMS5003;31721;41.740;-88.000;2023-02-28T03:37:28;2;2;
45990;PMS5003;31721;41.740;-88.000;2023-02-28T03:39:59;2;2;
45990;PMS5003;31721;41.740;-88.000;2023-02-28T03:42:31;1;1;
45990;PMS5003;31721;41.740;-88.000;2023-02-28T03:45:02;1;1;
45990;PMS5003;31721;41.740;-88.000;2023-02-28T03:47:37;4;2;
45990;PMS5003;31721;41.740;-88.000;2023-02-28T03:50:10;2;1;
45990;PMS5003;31721;41.740;-88.000;2023-02-28T03:52:42;3;2;
45990;PMS5003;31721;41.740;-88.000;2023-02-28T03:55:14;3;3;
45990;PMS5003;31721;41.740;-88.000;2023-02-28T03:57:45;3;3;
45990;PMS5003;31721;41.740;-88.000;2023-02-28T04:00:26;6;6;
45990;PMS5003;31721;41.740;-88.000;2023-02-28T04:02:59;8;7;
45990;PMS5003;31721;41.740;-88.000;2023-02-28T04:05:27;7;7;
45990;PMS5003;31721;41.740;-88.000;2023-02-28T04:08:03;11;11;
45990;PMS5003;31721;41.740;-88.000;2023-02-28T04:10:31;7;7;
45990;PMS5003;31721;41.740;-88.000;2023-02-28T04:13:04;5;5;
45990;PMS5003;31721;41.740;-88.000;2023-02-28T04:15:32;10;8;
45990;PMS5003;31721;41.740;-88.000;2023-02-28T04:17:59;3;3;
45990;PMS5003;31721;41.740;-88.000;2023-02-28T04:20:27;8;7;
45990;PMS5003;31721;41.740;-88.000;2023-02-28T04:22:55;2;2;
45990;PMS5003;31721;41.740;-88.000;2023-02-28T04:25:22;2;2;
45990;PMS5003;31721;41.740;-88.000;2023-02-28T04:27:50;1;1;
45990;PMS5003;31721;41.740;-88.000;2023-02-28T04:30:17;2;2;
45990;PMS5003;31721;41.740;-88.000;2023-02-28T04:32:46;2;2;
45990;PMS5003;31721;41.740;-88.000;2023-02-28T04:35:13;6;2;
45990;PMS5003;31721;41.740;-88.000;2023-02-28T04:37:41;2;2;
45990;PMS5003;31721;41.740;-88.000;2023-02-28T04:40:09;5;5;
45990;PMS5003;31721;41.740;-88.000;2023-02-28T04:42:37;2;2;
45990;PMS5003;31721;41.740;-88.000;2023-02-28T04:45:06;1;1;
45990;PMS5003;31721;41.740;-88.000;2023-02-28T04:47:34;2;2;
45990;PMS5003;31721;41.740;-88.000;2023-02-28T04:50:02;3;3;
45990;PMS5003;31721;41.740;-88.000;2023-02-28T04:52:30;2;2;
45990;PMS5003;31721;41.740;-88.000;2023-02-28T04:54:58;1;1;
45990;PMS5003;31721;41.740;-88.000;2023-02-28T04:57:26;2;2;
45990;PMS5003;31721;41.740;-88.000;2023-02-28T04:59:53;1;1;
45990;PMS5003;31721;41.740;-88.000;2023-02-28T05:02:22;1;1;
45990;PMS5003;31721;41.740;-88.000;2023-02-28T05:04:49;2;2;
45990;PMS5003;31721;41.740;-88.000;2023-02-28T05:07:17;1;1;
45990;PMS5003;31721;41.740;-88.000;2023-02-28T05:09:45;2;2;
45990;PMS5003;31721;41.740;-88.000;2023-02-28T05:12:12;7;7;
45990;PMS5003;31721;41.740;-88.000;2023-02-28T05:14:40;5;5;
45990;PMS5003;31721;41.740;-88.000;2023-02-28T05:17:08;2;2;
45990;PMS5003;31721;41.740;-88.000;2023-02-28T05:19:37;6;3;
45990;PMS5003;31721;41.740;-88.000;2023-02-28T05:22:04;5;5;
45990;PMS5003;31721;41.740;-88.000;2023-02-28T05:24:38;3;3;
45990;PMS5003;31721;41.740;-88.000;2023-02-28T05:27:07;3;3;
45990;PMS5003;31721;41.740;-88.000;2023-02-28T05:29:35;2;2;
45990;PMS5003;31721;41.740;-88.000;2023-02-28T05:32:03;4;4;
45990;PMS5003;31721;41.740;-88.000;2023-02-28T05:34:31;2;2;
45990;PMS5003;31721;41.740;-88.000;2023-02-28T05:36:58;7;5;
45990;PMS5003;31721;41.740;-88.000;2023-02-28T05:39:26;7;5;
45990;PMS5003;31721;41.740;-88.000;2023-02-28T05:41:54;5;3;
45990;PMS5003;31721;41.740;-88.000;2023-02-28T05:44:22;8;6;
45990;PMS5003;31721;41.740;-88.000;2023-02-28T05:46:49;5;3;
45990;PMS5003;31721;41.740;-88.000;2023-02-28T05:49:17;4;3;
45990;PMS5003;31721;41.740;-88.000;2023-02-28T05:51:44;3;3;
45990;PMS5003;31721;41.740;-88.000;2023-02-28T05:54:12;5;5;
45990;PMS5003;31721;41.740;-88.000;2023-02-28T05:56:39;7;7;
45990;PMS5003;31721;41.740;-88.000;2023-02-28T05:59:07;4;4;
45990;PMS5003;31721;41.740;-88.000;2023-02-28T06:01:35;6;6;
45990;PMS5003;31721;41.740;-88.000;2023-02-28T06:04:05;3;3;
45990;PMS5003;31721;41.740;-88.000;2023-02-28T06:06:34;4;4;
45990;PMS5003;31721;41.740;-88.000;2023-02-28T06:09:03;5;5;
45990;PMS5003;31721;41.740;-88.000;2023-02-28T06:11:32;6;6;
45990;PMS5003;31721;41.740;-88.000;2023-02-28T06:14:00;6;6;
45990;PMS5003;31721;41.740;-88.000;2023-02-28T06:16:29;3;3;
45990;PMS5003;31721;41.740;-88.000;2023-02-28T06:19:00;8;7;
45990;PMS5003;31721;41.740;-88.000;2023-02-28T06:21:30;8;5;
45990;PMS5003;31721;41.740;-88.000;2023-02-28T06:23:58;6;3;
45990;PMS5003;31721;41.740;-88.000;2023-02-28T06:26:26;6;6;
45990;PMS5003;31721;41.740;-88.000;2023-02-28T06:28:54;8;7;
45990;PMS5003;31721;41.740;-88.000;2023-02-28T06:31:22;7;7;
45990;PMS5003;31721;41.740;-88.000;2023-02-28T06:33:50;7;7;
45990;PMS5003;31721;41.740;-88.000;2023-02-28T06:36:18;7;6;
45990;PMS5003;31721;41.740;-88.000;2023-02-28T06:38:46;6;6;
45990;PMS5003;31721;41.740;-88.000;2023-02-28T06:41:14;6;6;
45990;PMS5003;31721;41.740;-88.000;2023-02-28T06:43:42;5;3;
45990;PMS5003;31721;41.740;-88.000;2023-02-28T06:46:11;6;6;
45990;PMS5003;31721;41.740;-88.000;2023-02-28T06:48:40;7;7;
45990;PMS5003;31721;41.740;-88.000;2023-02-28T06:51:09;8;6;
45990;PMS5003;31721;41.740;-88.000;2023-02-28T06:53:39;6;6;
45990;PMS5003;31721;41.740;-88.000;2023-02-28T06:56:07;7;7;
45990;PMS5003;31721;41.740;-88.000;2023-02-28T06:58:36;5;5;
45990;PMS5003;31721;41.740;-88.000;2023-02-28T07:01:04;8;8;
45990;PMS5003;31721;41.740;-88.000;2023-02-28T07:03:34;7;7;
45990;PMS5003;31721;41.740;-88.000;2023-02-28T07:06:04;11;7;
45990;PMS5003;31721;41.740;-88.000;2023-02-28T07:08:32;7;7;
45990;PMS5003;31721;41.740;-88.000;2023-02-28T07:11:00;9;7;
45990;PMS5003;31721;41.740;-88.000;2023-02-28T07:13:28;7;7;
45990;PMS5003;31721;41.740;-88.000;2023-02-28T07:15:58;8;8;
45990;PMS5003;31721;41.740;-88.000;2023-02-28T07:18:27;6;6;
45990;PMS5003;31721;41.740;-88.000;2023-02-28T07:20:55;7;4;
45990;PMS5003;31721;41.740;-88.000;2023-02-28T07:23:22;13;6;
45990;PMS5003;31721;41.740;-88.000;2023-02-28T07:25:51;6;4;
45990;PMS5003;31721;41.740;-88.000;2023-02-28T07:28:18;8;7;
45990;PMS5003;31721;41.740;-88.000;2023-02-28T07:30:46;9;7;
45990;PMS5003;31721;41.740;-88.000;2023-02-28T07:33:14;6;6;
45990;PMS5003;31721;41.740;-88.000;2023-02-28T07:35:42;4;4;
45990;PMS5003;31721;41.740;-88.000;2023-02-28T07:38:11;4;4;
45990;PMS5003;31721;41.740;-88.000;2023-02-28T07:40:39;11;8;
45990;PMS5003;31721;41.740;-88.000;2023-02-28T07:43:06;9;7;
45990;PMS5003;31721;41.740;-88.000;2023-02-28T07:45:34;7;7;
45990;PMS5003;31721;41.740;-88.000;2023-02-28T07:48:02;8;4;
45990;PMS5003;31721;41.740;-88.000;2023-02-28T07:50:30;8;4;
45990;PMS5003;31721;41.740;-88.000;2023-02-28T07:52:58;7;4;
45990;PMS5003;31721;41.740;-88.000;2023-02-28T07:55:26;12;9;
45990;PMS5003;31721;41.740;-88.000;2023-02-28T07:57:54;7;6;
45990;PMS5003;31721;41.740;-88.000;2023-02-28T08:00:23;8;8;
45990;PMS5003;31721;41.740;-88.000;2023-02-28T08:02:51;8;6;
45990;PMS5003;31721;41.740;-88.000;2023-02-28T08:05:19;6;6;
45990;PMS5003;31721;41.740;-88.000;2023-02-28T08:07:48;8;6;
45990;PMS5003;31721;41.740;-88.000;2023-02-28T08:10:16;7;4;
45990;PMS5003;31721;41.740;-88.000;2023-02-28T08:12:44;14;13;
45990;PMS5003;31721;41.740;-88.000;2023-02-28T08:15:12;6;6;
45990;PMS5003;31721;41.740;-88.000;2023-02-28T08:17:39;6;6;
45990;PMS5003;31721;41.740;-88.000;2023-02-28T08:20:07;8;7;
45990;PMS5003;31721;41.740;-88.000;2023-02-28T08:22:36;7;7;
45990;PMS5003;31721;41.740;-88.000;2023-02-28T08:25:05;7;6;
45990;PMS5003;31721;41.740;-88.000;2023-02-28T08:27:33;8;6;
45990;PMS5003;31721;41.740;-88.000;2023-02-28T08:30:03;8;7;
45990;PMS5003;31721;41.740;-88.000;2023-02-28T08:32:32;8;8;
45990;PMS5003;31721;41.740;-88.000;2023-02-28T08:35:00;7;7;
45990;PMS5003;31721;41.740;-88.000;2023-02-28T08:37:28;6;6;
45990;PMS5003;31721;41.740;-88.000;2023-02-28T08:39:56;7;7;
45990;PMS5003;31721;41.740;-88.000;2023-02-28T08:42:24;8;8;
45990;PMS5003;31721;41.740;-88.000;2023-02-28T08:44:52;8;8;
45990;PMS5003;31721;41.740;-88.000;2023-02-28T08:47:20;7;6;
45990;PMS5003;31721;41.740;-88.000;2023-02-28T08:49:47;9;6;
45990;PMS5003;31721;41.740;-88.000;2023-02-28T08:52:15;7;7;
45990;PMS5003;31721;41.740;-88.000;2023-02-28T08:54:42;9;8;
45990;PMS5003;31721;41.740;-88.000;2023-02-28T08:57:09;7;7;
45990;PMS5003;31721;41.740;-88.000;2023-02-28T08:59:37;4;4;
45990;PMS5003;31721;41.740;-88.000;2023-02-28T09:02:04;11;9;
45990;PMS5003;31721;41.740;-88.000;2023-02-28T09:04:33;11;9;
45990;PMS5003;31721;41.740;-88.000;2023-02-28T09:07:00;12;7;
45990;PMS5003;31721;41.740;-88.000;2023-02-28T09:09:28;11;7;
45990;PMS5003;31721;41.740;-88.000;2023-02-28T09:11:56;12;9;
45990;PMS5003;31721;41.740;-88.000;2023-02-28T09:14:23;9;8;
45990;PMS5003;31721;41.740;-88.000;2023-02-28T09:16:52;13;11;
45990;PMS5003;31721;41.740;-88.000;2023-02-28T09:19:19;13;12;
45990;PMS5003;31721;41.740;-88.000;2023-02-28T09:21:46;14;11;
45990;PMS5003;31721;41.740;-88.000;2023-02-28T09:24:15;13;9;
45990;PMS5003;31721;41.740;-88.000;2023-02-28T09:26:43;6;6;
45990;PMS5003;31721;41.740;-88.000;2023-02-28T09:29:11;14;14;
45990;PMS5003;31721;41.740;-88.000;2023-02-28T09:31:38;14;12;
45990;PMS5003;31721;41.740;-88.000;2023-02-28T09:34:06;17;16;
45990;PMS5003;31721;41.740;-88.000;2023-02-28T09:36:33;9;8;
45990;PMS5003;31721;41.740;-88.000;2023-02-28T09:39:01;9;8;
45990;PMS5003;31721;41.740;-88.000;2023-02-28T09:41:30;12;9;
45990;PMS5003;31721;41.740;-88.000;2023-02-28T09:44:04;19;19;
45990;PMS5003;31721;41.740;-88.000;2023-02-28T09:46:37;13;13;
45990;PMS5003;31721;41.740;-88.000;2023-02-28T09:49:11;12;11;
45990;PMS5003;31721;41.740;-88.000;2023-02-28T09:51:45;24;19;
45990;PMS5003;31721;41.740;-88.000;2023-02-28T09:54:18;16;13;
45990;PMS5003;31721;41.740;-88.000;2023-02-28T09:56:48;17;16;
45990;PMS5003;31721;41.740;-88.000;2023-02-28T09:59:28;11;9;
45990;PMS5003;31721;41.740;-88.000;2023-02-28T10:02:06;22;17;
45990;PMS5003;31721;41.740;-88.000;2023-02-28T10:04:46;16;9;
45990;PMS5003;31721;41.740;-88.000;2023-02-28T10:07:19;13;12;
45990;PMS5003;31721;41.740;-88.000;2023-02-28T10:09:58;13;12;
45990;PMS5003;31721;41.740;-88.000;2023-02-28T10:12:31;13;8;
45990;PMS5003;31721;41.740;-88.000;2023-02-28T10:15:03;12;11;
45990;PMS5003;31721;41.740;-88.000;2023-02-28T10:17:34;11;11;
45990;PMS5003;31721;41.740;-88.000;2023-02-28T10:20:07;22;17;
45990;PMS5003;31721;41.740;-88.000;2023-02-28T10:22:41;12;9;
45990;PMS5003;31721;41.740;-88.000;2023-02-28T10:25:19;18;11;
45990;PMS5003;31721;41.740;-88.000;2023-02-28T10:27:49;16;9;
45990;PMS5003;31721;41.740;-88.000;2023-02-28T10:30:20;14;13;
45990;PMS5003;31721;41.740;-88.000;2023-02-28T10:32:50;13;11;
45990;PMS5003;31721;41.740;-88.000;2023-02-28T10:35:19;9;9;
45990;PMS5003;31721;41.740;-88.000;2023-02-28T10:37:48;16;14;
45990;PMS5003;31721;41.740;-88.000;2023-02-28T10:40:28;13;13;
45990;PMS5003;31721;41.740;-88.000;2023-02-28T10:43:00;16;12;
45990;PMS5003;31721;41.740;-88.000;2023-02-28T10:45:31;12;8;
45990;PMS5003;31721;41.740;-88.000;2023-02-28T10:48:00;9;9;
45990;PMS5003;31721;41.740;-88.000;2023-02-28T10:50:32;11;9;
45990;PMS5003;31721;41.740;-88.000;2023-02-28T10:53:07;12;12;
45990;PMS5003;31721;41.740;-88.000;2023-02-28T10:55:51;13;12;
45990;PMS5003;31721;41.740;-88.000;2023-02-28T10:58:25;12;8;
45990;PMS5003;31721;41.740;-88.000;2023-02-28T11:00:54;13;9;
45990;PMS5003;31721;41.740;-88.000;2023-02-28T11:03:24;19;17;
45990;PMS5003;31721;41.740;-88.000;2023-02-28T11:06:03;12;7;
45990;PMS5003;31721;41.740;-88.000;2023-02-28T11:08:33;9;8;
45990;PMS5003;31721;41.740;-88.000;2023-02-28T11:11:10;11;11;
45990;PMS5003;31721;41.740;-88.000;2023-02-28T11:13:37;12;11;
45990;PMS5003;31721;41.740;-88.000;2023-02-28T11:16:05;14;11;
45990;PMS5003;31721;41.740;-88.000;2023-02-28T11:18:38;12;8;
45990;PMS5003;31721;41.740;-88.000;2023-02-28T11:21:11;8;8;
45990;PMS5003;31721;41.740;-88.000;2023-02-28T11:23:45;13;12;
45990;PMS5003;31721;41.740;-88.000;2023-02-28T11:26:16;16;12;
45990;PMS5003;31721;41.740;-88.000;2023-02-28T11:29:08;14;8;
45990;PMS5003;31721;41.740;-88.000;2023-02-28T11:31:41;14;11;
45990;PMS5003;31721;41.740;-88.000;2023-02-28T11:34:25;7;7;
45990;PMS5003;31721;41.740;-88.000;2023-02-28T11:36:54;12;9;
45990;PMS5003;31721;41.740;-88.000;2023-02-28T11:39:24;11;9;
45990;PMS5003;31721;41.740;-88.000;2023-02-28T11:41:57;12;11;
45990;PMS5003;31721;41.740;-88.000;2023-02-28T11:45:30;12;11;
45990;PMS5003;31721;41.740;-88.000;2023-02-28T11:48:12;18;16;
45990;PMS5003;31721;41.740;-88.000;2023-02-28T11:50:48;12;9;
45990;PMS5003;31721;41.740;-88.000;2023-02-28T11:53:26;14;11;
45990;PMS5003;31721;41.740;-88.000;2023-02-28T11:56:08;19;16;
45990;PMS5003;31721;41.740;-88.000;2023-02-28T11:58:44;16;11;
45990;PMS5003;31721;41.740;-88.000;2023-02-28T12:01:25;17;11;
45990;PMS5003;31721;41.740;-88.000;2023-02-28T12:04:04;8;7;
45990;PMS5003;31721;41.740;-88.000;2023-02-28T12:06:45;14;12;
45990;PMS5003;31721;41.740;-88.000;2023-02-28T12:09:23;11;11;
45990;PMS5003;31721;41.740;-88.000;2023-02-28T12:12:07;19;18;
45990;PMS5003;31721;41.740;-88.000;2023-02-28T12:14:52;12;9;
45990;PMS5003;31721;41.740;-88.000;2023-02-28T12:17:36;16;13;
45990;PMS5003;31721;41.740;-88.000;2023-02-28T12:20:20;16;13;
45990;PMS5003;31721;41.740;-88.000;2023-02-28T12:22:57;19;14;
45990;PMS5003;31721;41.740;-88.000;2023-02-28T12:25:38;9;8;
45990;PMS5003;31721;41.740;-88.000;2023-02-28T12:28:16;14;9;
45990;PMS5003;31721;41.740;-88.000;2023-02-28T12:30:51;14;11;
45990;PMS5003;31721;41.740;-88.000;2023-02-28T12:33:26;14;11;
45990;PMS5003;31721;41.740;-88.000;2023-02-28T12:36:01;14;7;
45990;PMS5003;31721;41.740;-88.000;2023-02-28T12:38:34;17;13;
45990;PMS5003;31721;41.740;-88.000;2023-02-28T12:41:08;13;12;
45990;PMS5003;31721;41.740;-88.000;2023-02-28T12:43:41;9;8;
45990;PMS5003;31721;41.740;-88.000;2023-02-28T12:46:14;8;8;
45990;PMS5003;31721;41.740;-88.000;2023-02-28T12:48:48;9;9;
45990;PMS5003;31721;41.740;-88.000;2023-02-28T12:51:20;16;14;
45990;PMS5003;31721;41.740;-88.000;2023-02-28T12:53:52;11;11;
45990;PMS5003;31721;41.740;-88.000;2023-02-28T12:56:30;12;9;
45990;PMS5003;31721;41.740;-88.000;2023-02-28T12:59:06;14;14;
45990;PMS5003;31721;41.740;-88.000;2023-02-28T13:01:49;13;9;
45990;PMS5003;31721;41.740;-88.000;2023-02-28T13:09:05;22;19;
45990;PMS5003;31721;41.740;-88.000;2023-02-28T13:11:39;13;12;
45990;PMS5003;31721;41.740;-88.000;2023-02-28T13:14:24;11;8;
45990;PMS5003;31721;41.740;-88.000;2023-02-28T13:16:57;14;14;
45990;PMS5003;31721;41.740;-88.000;2023-02-28T13:19:29;7;7;
45990;PMS5003;31721;41.740;-88.000;2023-02-28T13:22:00;12;8;
45990;PMS5003;31721;41.740;-88.000;2023-02-28T13:24:46;8;7;
45990;PMS5003;31721;41.740;-88.000;2023-02-28T13:31:13;12;10;
45990;PMS5003;31721;41.740;-88.000;2023-02-28T13:34:04;8;6;
45990;PMS5003;31721;41.740;-88.000;2023-02-28T13:36:40;12;11;
45990;PMS5003;31721;41.740;-88.000;2023-02-28T13:44:00;22;17;
45990;PMS5003;31721;41.740;-88.000;2023-02-28T13:46:30;12;11;
45990;PMS5003;31721;41.740;-88.000;2023-02-28T13:49:18;12;12;
45990;PMS5003;31721;41.740;-88.000;2023-02-28T13:51:48;9;9;
45990;PMS5003;31721;41.740;-88.000;2023-02-28T13:54:22;14;11;
45990;PMS5003;31721;41.740;-88.000;2023-02-28T13:57:05;11;11;
45990;PMS5003;31721;41.740;-88.000;2023-02-28T13:59:45;11;11;
45990;PMS5003;31721;41.740;-88.000;2023-02-28T14:02:30;8;8;
45990;PMS5003;31721;41.740;-88.000;2023-02-28T14:05:12;8;8;
45990;PMS5003;31721;41.740;-88.000;2023-02-28T14:07:44;9;9;
45990;PMS5003;31721;41.740;-88.000;2023-02-28T14:10:21;17;15;
45990;PMS5003;31721;41.740;-88.000;2023-02-28T14:12:57;13;11;
45990;PMS5003;31721;41.740;-88.000;2023-02-28T14:15:59;11;7;
45990;PMS5003;31721;41.740;-88.000;2023-02-28T14:18:30;11;8;
45990;PMS5003;31721;41.740;-88.000;2023-02-28T14:21:09;8;8;
45990;PMS5003;31721;41.740;-88.000;2023-02-28T14:23:48;9;9;
45990;PMS5003;31721;41.740;-88.000;2023-02-28T14:27:11;9;8;
45990;PMS5003;31721;41.740;-88.000;2023-02-28T14:30:01;9;7;
45990;PMS5003;31721;41.740;-88.000;2023-02-28T14:32:41;15;8;
45990;PMS5003;31721;41.740;-88.000;2023-02-28T14:35:20;8;8;
45990;PMS5003;31721;41.740;-88.000;2023-02-28T14:38:06;7;7;
45990;PMS5003;31721;41.740;-88.000;2023-02-28T14:40:45;9;7;
45990;PMS5003;31721;41.740;-88.000;2023-02-28T14:43:20;12;8;
45990;PMS5003;31721;41.740;-88.000;2023-02-28T14:45:49;8;8;
45990;PMS5003;31721;41.740;-88.000;2023-02-28T14:48:20;7;6;
45990;PMS5003;31721;41.740;-88.000;2023-02-28T14:50:50;10;7;
45990;PMS5003;31721;41.740;-88.000;2023-02-28T14:53:21;9;9;
45990;PMS5003;31721;41.740;-88.000;2023-02-28T14:55:52;9;9;
45990;PMS5003;31721;41.740;-88.000;2023-02-28T14:58:22;8;8;
45990;PMS5003;31721;41.740;-88.000;2023-02-28T15:00:51;8;7;
45990;PMS5003;31721;41.740;-88.000;2023-02-28T15:03:22;7;7;
45990;PMS5003;31721;41.740;-88.000;2023-02-28T15:05:55;6;6;
45990;PMS5003;31721;41.740;-88.000;2023-02-28T15:08:24;7;4;
45990;PMS5003;31721;41.740;-88.000;2023-02-28T15:10:54;9;8;
45990;PMS5003;31721;41.740;-88.000;2023-02-28T15:13:26;7;7;
45990;PMS5003;31721;41.740;-88.000;2023-02-28T15:16:10;10;8;
45990;PMS5003;31721;41.740;-88.000;2023-02-28T15:18:43;8;7;
45990;PMS5003;31721;41.740;-88.000;2023-02-28T15:21:16;7;7;
45990;PMS5003;31721;41.740;-88.000;2023-02-28T15:23:46;9;7;
45990;PMS5003;31721;41.740;-88.000;2023-02-28T15:26:19;9;8;
45990;PMS5003;31721;41.740;-88.000;2023-02-28T15:28:51;13;13;
45990;PMS5003;31721;41.740;-88.000;2023-02-28T15:31:26;10;9;
45990;PMS5003;31721;41.740;-88.000;2023-02-28T15:33:56;8;8;
45990;PMS5003;31721;41.740;-88.000;2023-02-28T15:36:30;7;7;
45990;PMS5003;31721;41.740;-88.000;2023-02-28T15:38:59;9;7;
45990;PMS5003;31721;41.740;-88.000;2023-02-28T15:41:28;7;7;
45990;PMS5003;31721;41.740;-88.000;2023-02-28T15:44:32;17;17;
45990;PMS5003;31721;41.740;-88.000;2023-02-28T15:47:02;11;11;
45990;PMS5003;31721;41.740;-88.000;2023-02-28T15:49:34;11;9;
45990;PMS5003;31721;41.740;-88.000;2023-02-28T15:52:09;9;8;
45990;PMS5003;31721;41.740;-88.000;2023-02-28T15:54:41;17;14;
45990;PMS5003;31721;41.740;-88.000;2023-02-28T15:57:13;11;9;
45990;PMS5003;31721;41.740;-88.000;2023-02-28T15:59:48;10;10;
45990;PMS5003;31721;41.740;-88.000;2023-02-28T16:02:20;7;7;
45990;PMS5003;31721;41.740;-88.000;2023-02-28T16:04:57;12;8;
45990;PMS5003;31721;41.740;-88.000;2023-02-28T16:07:25;9;7;
45990;PMS5003;31721;41.740;-88.000;2023-02-28T16:09:54;7;5;
45990;PMS5003;31721;41.740;-88.000;2023-02-28T16:12:27;9;7;
45990;PMS5003;31721;41.740;-88.000;2023-02-28T16:14:56;8;8;
45990;PMS5003;31721;41.740;-88.000;2023-02-28T16:17:27;7;5;
45990;PMS5003;31721;41.740;-88.000;2023-02-28T16:19:58;9;7;
45990;PMS5003;31721;41.740;-88.000;2023-02-28T16:22:27;8;8;
45990;PMS5003;31721;41.740;-88.000;2023-02-28T16:24:55;11;5;
45990;PMS5003;31721;41.740;-88.000;2023-02-28T16:27:25;9;8;
45990;PMS5003;31721;41.740;-88.000;2023-02-28T16:29:58;11;9;
45990;PMS5003;31721;41.740;-88.000;2023-02-28T16:32:27;6;5;
45990;PMS5003;31721;41.740;-88.000;2023-02-28T16:34:56;6;6;
45990;PMS5003;31721;41.740;-88.000;2023-02-28T16:37:25;9;8;
45990;PMS5003;31721;41.740;-88.000;2023-02-28T16:39:54;11;10;
45990;PMS5003;31721;41.740;-88.000;2023-02-28T16:42:23;9;9;
45990;PMS5003;31721;41.740;-88.000;2023-02-28T16:44:53;10;8;
45990;PMS5003;31721;41.740;-88.000;2023-02-28T16:47:22;13;10;
45990;PMS5003;31721;41.740;-88.000;2023-02-28T16:49:50;9;9;
45990;PMS5003;31721;41.740;-88.000;2023-02-28T16:52:18;10;9;
45990;PMS5003;31721;41.740;-88.000;2023-02-28T16:54:46;11;7;